createdAt,value
2022-10-23T00:02:37.109Z,1.00
2022-10-23T00:07:40.517Z,1.20
2022-10-23T00:12:44.026Z,1.20
2022-10-23T00:17:48.055Z,1.00
2022-10-23T00:22:54.138Z,0.80
2022-10-23T00:27:57.458Z,0.50
2022-10-23T00:33:01.093Z,1.80
2022-10-23T00:38:07.035Z,1.30
2022-10-23T00:43:19.081Z,1.20
2022-10-23T00:48:22.668Z,1.90
2022-10-23T00:53:26.802Z,2.00
2022-10-23T00:58:31.504Z,1.80
2022-10-23T01:03:34.753Z,2.00
2022-10-23T01:08:49.363Z,1.60
2022-10-23T01:13:52.609Z,0.50
2022-10-23T01:19:28.539Z,1.20
2022-10-23T01:24:56.880Z,1.60
2022-10-23T01:30:08.373Z,1.50
2022-10-23T01:35:24.789Z,0.60
2022-10-23T01:41:05.282Z,0.60
2022-10-23T01:46:15.597Z,0.40
2022-10-23T01:51:20.459Z,0.40
2022-10-23T01:56:29.367Z,0.90
2022-10-23T02:01:34.309Z,1.40
2022-10-23T02:06:41.568Z,0.10
2022-10-23T02:11:53.906Z,0.60
2022-10-23T02:17:01.723Z,0.60
2022-10-23T02:22:09.742Z,0.60
2022-10-23T02:27:17.839Z,0.60
2022-10-23T02:32:27.427Z,0.30
2022-10-23T02:37:30.863Z,0.60
2022-10-23T02:42:38.862Z,2.10
2022-10-23T02:48:02.046Z,1.40
2022-10-23T02:53:44.960Z,1.30
2022-10-23T02:58:49.811Z,1.50
2022-10-23T03:03:57.154Z,0.80
2022-10-23T03:09:04.700Z,0.80
2022-10-23T03:14:08.254Z,0.70
2022-10-23T03:19:14.647Z,0.40
2022-10-23T03:24:18.059Z,1.30
2022-10-23T03:29:21.709Z,1.40
2022-10-23T03:34:26.409Z,0.50
2022-10-23T03:39:29.823Z,1.20
2022-10-23T03:44:34.466Z,0.30
2022-10-23T03:49:39.963Z,0.50
2022-10-23T03:54:43.299Z,0.60
2022-10-23T03:59:47.045Z,0.80
2022-10-23T04:04:50.335Z,0.30
2022-10-23T04:09:53.514Z,0.80
2022-10-23T04:14:56.956Z,0.70
2022-10-23T04:20:00.818Z,1.10
2022-10-23T04:25:04.315Z,0.70
2022-10-23T04:30:09.752Z,2.50
2022-10-23T04:35:17.251Z,1.30
2022-10-23T04:40:20.742Z,1.60
2022-10-23T04:45:24.755Z,0.50
2022-10-23T04:50:28.127Z,1.90
2022-10-23T04:55:59.375Z,1.20
2022-10-23T05:01:14.506Z,1.20
2022-10-23T05:06:18.125Z,0.60
2022-10-23T05:11:30.263Z,0.90
2022-10-23T05:16:59.844Z,0.20
2022-10-23T05:22:05.126Z,1.10
2022-10-23T05:27:22.901Z,1.20
2022-10-23T05:32:30.090Z,2.30
2022-10-23T05:37:34.564Z,1.10
2022-10-23T05:43:00.708Z,1.60
2022-10-23T05:48:33.651Z,4.10
2022-10-23T05:53:43.183Z,5.90
2022-10-23T05:59:08.049Z,4.40
2022-10-23T06:04:43.622Z,2.00
2022-10-23T06:10:05.204Z,1.30
2022-10-23T06:15:11.317Z,2.30
2022-10-23T06:20:31.071Z,3.40
2022-10-23T06:25:57.751Z,2.00
2022-10-23T06:31:17.522Z,1.80
2022-10-23T06:36:22.497Z,0.60
2022-10-23T06:41:27.621Z,1.40
2022-10-23T06:46:33.562Z,2.10
2022-10-23T06:51:39.811Z,2.20
2022-10-23T06:56:49.092Z,1.20
2022-10-23T07:07:07.392Z,3.50
2022-10-23T07:12:18.614Z,2.90
2022-10-23T07:17:57.659Z,2.50
2022-10-23T07:23:02.495Z,1.90
2022-10-23T07:28:12.488Z,1.10
2022-10-23T07:33:16.247Z,2.50
2022-10-23T07:38:36.353Z,1.80
2022-10-23T07:43:40.104Z,2.10
2022-10-23T07:48:45.873Z,1.60
2022-10-23T07:53:51.292Z,1.40
2022-10-23T07:59:14.306Z,0.60
2022-10-23T08:04:27.390Z,0.80
2022-10-23T08:09:38.447Z,1.10
2022-10-23T08:14:45.276Z,1.40
2022-10-23T08:19:49.148Z,0.80
2022-10-23T08:24:54.378Z,0.90
2022-10-23T08:30:08.991Z,1.90
2022-10-23T08:35:17.267Z,0.90
2022-10-23T08:40:24.209Z,0.60
2022-10-23T08:51:49.501Z,0.90
2022-10-23T08:57:00.044Z,0.50
2022-10-23T09:02:18.931Z,1.20
2022-10-23T09:07:34.944Z,0.50
2022-10-23T09:12:39.856Z,0.90
2022-10-23T09:17:44.523Z,0.20
2022-10-23T09:22:57.166Z,0.40
2022-10-23T09:28:06.912Z,0.60
2022-10-23T09:33:17.459Z,0.90
2022-10-23T09:38:30.299Z,0.80
2022-10-23T09:43:34.161Z,0.30
2022-10-23T09:48:42.637Z,0.20
2022-10-23T09:53:57.676Z,0.10
2022-10-23T09:59:18.749Z,0.10
2022-10-23T10:04:37.621Z,0.30
2022-10-23T10:09:44.363Z,0.70
2022-10-23T10:14:57.844Z,0.40
2022-10-23T10:20:15.232Z,0.30
2022-10-23T10:25:51.380Z,0.10
2022-10-23T10:31:15.828Z,0.00
2022-10-23T10:36:51.992Z,0.20
2022-10-23T10:42:26.019Z,0.30
2022-10-23T10:48:04.651Z,0.40
2022-10-23T10:53:46.758Z,0.80
2022-10-23T10:59:12.080Z,0.20
2022-10-23T11:04:35.442Z,0.40
2022-10-23T11:09:53.196Z,0.40
2022-10-23T11:15:06.383Z,0.30
2022-10-23T11:20:40.529Z,0.30
2022-10-23T11:26:20.604Z,0.50
2022-10-23T11:32:01.476Z,0.20
2022-10-23T11:37:31.109Z,0.50
2022-10-23T11:42:50.967Z,0.60
2022-10-23T11:48:28.665Z,0.00
2022-10-23T11:53:53.328Z,0.70
2022-10-23T11:59:42.400Z,0.20
2022-10-23T12:04:55.073Z,0.40
2022-10-23T12:10:42.459Z,1.30
2022-10-23T12:22:06.258Z,0.50
2022-10-23T12:28:09.334Z,0.50
2022-10-23T12:33:41.048Z,0.60
2022-10-23T12:38:51.669Z,0.70
2022-10-23T12:44:08.291Z,0.80
2022-10-23T12:49:28.282Z,0.50
2022-10-23T12:54:39.879Z,0.20
2022-10-23T13:05:22.812Z,0.60
2022-10-23T13:10:34.049Z,0.70
2022-10-23T13:16:02.077Z,0.40
2022-10-23T13:21:27.320Z,0.30
2022-10-23T13:26:47.847Z,0.30
2022-10-23T13:31:51.560Z,1.00
2022-10-23T13:37:22.296Z,0.60
2022-10-23T13:42:25.755Z,0.00
2022-10-23T13:47:29.218Z,0.20
2022-10-23T13:52:33.670Z,0.60
2022-10-23T13:57:37.333Z,0.60
2022-10-23T14:02:41.615Z,0.20
2022-10-23T14:07:48.187Z,0.20
2022-10-23T14:13:07.096Z,0.60
2022-10-23T14:18:12.049Z,0.10
2022-10-23T14:23:15.539Z,0.00
2022-10-23T14:28:22.160Z,0.40
2022-10-23T14:33:25.653Z,0.60
2022-10-23T14:38:29.245Z,0.00
2022-10-23T14:43:35.308Z,0.00
2022-10-23T14:48:42.576Z,0.20
2022-10-23T14:53:49.070Z,1.00
2022-10-23T14:58:52.465Z,0.60
2022-10-23T15:03:57.177Z,0.40
2022-10-23T15:09:00.811Z,0.00
2022-10-23T15:14:07.104Z,0.60
2022-10-23T15:19:18.214Z,0.20
2022-10-23T15:24:27.099Z,0.40
2022-10-23T15:29:30.935Z,0.80
2022-10-23T15:34:34.429Z,1.00
2022-10-23T15:39:38.109Z,0.90
2022-10-23T15:44:41.657Z,1.20
2022-10-23T15:49:45.123Z,1.40
2022-10-23T15:54:49.222Z,1.70
2022-10-23T16:05:12.355Z,1.10
2022-10-23T16:10:19.428Z,0.80
2022-10-23T16:15:24.772Z,1.50
2022-10-23T16:20:29.023Z,1.40
2022-10-23T16:25:38.969Z,0.30
2022-10-23T16:30:46.733Z,0.90
2022-10-23T16:35:52.482Z,1.00
2022-10-23T16:40:59.405Z,1.00
2022-10-23T16:46:22.763Z,1.30
2022-10-23T16:51:32.035Z,1.40
2022-10-23T16:56:39.529Z,0.60
2022-10-23T17:01:43.432Z,1.10
2022-10-23T17:06:47.200Z,0.60
2022-10-23T17:11:53.454Z,0.70
2022-10-23T17:17:00.425Z,1.50
2022-10-23T17:22:10.915Z,1.20
2022-10-23T17:27:15.580Z,1.40
2022-10-23T17:37:32.319Z,0.50
2022-10-23T17:42:49.463Z,1.10
2022-10-23T17:47:58.618Z,0.80
2022-10-23T17:53:02.473Z,1.60
2022-10-23T17:58:08.870Z,0.80
2022-10-23T18:03:15.512Z,0.50
2022-10-23T18:08:31.507Z,1.50
2022-10-23T18:13:38.964Z,1.00
2022-10-23T18:18:50.814Z,0.70
2022-10-23T18:23:54.493Z,1.80
2022-10-23T18:28:59.326Z,1.30
2022-10-23T18:34:17.158Z,1.70
2022-10-23T18:39:25.659Z,1.60
2022-10-23T18:44:32.483Z,1.10
2022-10-23T18:49:36.020Z,2.20
2022-10-23T18:54:50.426Z,1.30
2022-10-23T19:00:00.258Z,1.20
2022-10-23T19:05:09.730Z,1.60
2022-10-23T19:10:17.258Z,1.30
2022-10-23T19:15:26.923Z,1.40
2022-10-23T19:20:36.018Z,1.40
2022-10-23T19:25:48.513Z,1.10
2022-10-23T19:31:02.365Z,1.20
2022-10-23T19:36:52.553Z,1.40
2022-10-23T19:42:12.649Z,0.70
2022-10-23T19:47:38.531Z,0.80
2022-10-23T19:53:05.457Z,1.00
2022-10-23T19:58:13.001Z,0.30
2022-10-23T20:03:27.765Z,0.60
2022-10-23T20:08:37.939Z,0.40
2022-10-23T20:13:53.113Z,0.70
2022-10-23T20:19:12.168Z,0.30
2022-10-23T20:24:23.197Z,0.60
2022-10-23T20:29:40.951Z,0.80
2022-10-23T20:34:44.417Z,1.20
2022-10-23T20:39:54.128Z,1.60
2022-10-23T20:45:05.227Z,1.50
2022-10-23T20:50:09.033Z,2.90
2022-10-23T20:55:22.988Z,2.20
2022-10-23T21:00:27.945Z,0.90
2022-10-23T21:05:42.012Z,1.80
2022-10-23T21:10:50.592Z,0.70
2022-10-23T21:16:01.639Z,0.90
2022-10-23T21:21:05.604Z,1.50
2022-10-23T21:26:09.714Z,1.00
2022-10-23T21:31:16.890Z,2.00
2022-10-23T21:36:23.580Z,0.80
2022-10-23T21:41:31.033Z,1.10
2022-10-23T21:46:36.220Z,1.50
2022-10-23T21:51:45.849Z,1.20
2022-10-23T21:56:56.461Z,1.00
2022-10-23T22:02:01.755Z,2.40
2022-10-23T22:07:06.151Z,1.30
2022-10-23T22:12:13.766Z,1.10
2022-10-23T22:17:21.527Z,0.70
2022-10-23T22:22:25.199Z,1.50
2022-10-23T22:27:31.567Z,1.40
2022-10-23T22:32:36.008Z,1.90
2022-10-23T22:37:39.723Z,2.70
2022-10-23T22:42:43.440Z,0.80
2022-10-23T22:47:48.240Z,2.20
2022-10-23T22:52:52.642Z,1.30
2022-10-23T22:57:55.896Z,1.10
2022-10-23T23:03:00.197Z,1.70
2022-10-23T23:08:03.760Z,1.60
2022-10-23T23:13:07.876Z,1.50
2022-10-23T23:18:11.521Z,1.70
2022-10-23T23:23:15.593Z,1.00
2022-10-23T23:28:20.918Z,1.30
2022-10-23T23:33:24.646Z,0.90
2022-10-23T23:38:28.064Z,1.50
2022-10-23T23:43:31.522Z,2.30
2022-10-23T23:48:35.466Z,2.10
2022-10-23T23:53:38.895Z,0.80
2022-10-23T23:58:42.236Z,1.10
